Time;durP1;ratioP1;P1;durP2;ratioP2;P2;SDS_P1;SDS_P2;PMS_P1;PMS_P2;Temp;Humidity;BMP_temperature;BMP_pressure;BME280_temperature;BME280_humidity;BME280_pressure;Samples;Min_cycle;Max_cycle;Signal;HPM_P1;HPM_P2
2021/09/27 00:01:54;;;;;;;18.38;14.10;;;;;;;15.97;75.43;98963.44;5054075;28;20025;-50
2021/09/27 00:04:19;;;;;;;18.95;14.73;;;;;;;15.84;75.83;98966.31;5054088;28;20025;-50
2021/09/27 00:06:45;;;;;;;15.30;13.68;;;;;;;15.73;76.17;98966.03;5053965;28;20031;-50
2021/09/27 00:09:11;;;;;;;14.40;13.10;;;;;;;15.65;76.48;98971.63;5053914;28;20021;-50
2021/09/27 00:11:36;;;;;;;14.30;12.18;;;;;;;15.58;76.27;98969.09;5054152;28;20115;-50
2021/09/27 00:14:03;;;;;;;17.40;14.57;;;;;;;15.54;76.36;98970.56;5053762;28;20056;-50
2021/09/27 00:16:30;;;;;;;20.05;15.02;;;;;;;15.49;76.62;98972.28;5053785;28;20057;-50
2021/09/27 00:18:58;;;;;;;16.13;12.77;;;;;;;15.44;77.04;98972.16;5054074;28;20021;-50
2021/09/27 00:21:31;;;;;;;20.98;13.38;;;;;;;15.43;77.42;98973.97;5053743;28;20029;-50
2021/09/27 00:23:57;;;;;;;20.75;12.50;;;;;;;15.57;77.66;98975.44;5052201;28;20394;-50
2021/09/27 00:26:24;;;;;;;17.77;12.93;;;;;;;15.62;77.11;98973.94;5052317;28;20068;-50
2021/09/27 00:28:50;;;;;;;14.73;12.55;;;;;;;15.61;77.24;98969.66;5053560;28;20095;-50
2021/09/27 00:31:16;;;;;;;14.25;12.48;;;;;;;15.59;77.00;98969.88;5052197;28;20028;-50
2021/09/27 00:33:43;;;;;;;13.73;12.35;;;;;;;15.57;76.97;98966.66;5053521;28;20043;-50
2021/09/27 00:36:09;;;;;;;17.27;13.77;;;;;;;15.60;76.97;98968.88;5053334;28;20059;-50
2021/09/27 00:38:34;;;;;;;17.92;14.20;;;;;;;15.54;77.41;98957.34;5053391;28;20037;-50
2021/09/27 00:41:04;;;;;;;18.45;15.77;;;;;;;15.46;77.52;98968.25;5053356;28;20036;-50
2021/09/27 00:43:31;;;;;;;17.45;14.05;;;;;;;15.39;77.61;98967.53;5053389;28;20055;-50
2021/09/27 00:46:03;;;;;;;16.63;12.70;;;;;;;15.41;77.64;98962.00;5053268;28;20078;-50
2021/09/27 00:48:30;;;;;;;20.70;18.10;;;;;;;15.40;77.65;98966.50;5053240;28;20024;-50
2021/09/27 00:51:01;;;;;;;14.63;13.15;;;;;;;15.47;77.58;98963.75;5053112;28;20017;-51
2021/09/27 00:53:35;;;;;;;22.35;12.73;;;;;;;15.56;77.33;98965.06;5053213;28;20376;-50
2021/09/27 00:56:01;;;;;;;15.23;12.90;;;;;;;15.68;77.23;98960.59;5053133;28;20025;-50
2021/09/27 00:58:29;;;;;;;21.30;11.98;;;;;;;16.10;77.15;98960.59;5053016;28;20028;-51
2021/09/27 01:00:55;;;;;;;23.70;19.27;;;;;;;16.71;75.64;98960.31;5052946;28;20059;-51
2021/09/27 01:03:22;;;;;;;24.40;14.77;;;;;;;17.19;73.83;98969.00;5052901;28;20515;-50
2021/09/27 01:06:13;;;;;;;16.65;12.20;;;;;;;17.61;71.72;98961.53;5052850;28;20491;-50
2021/09/27 01:08:47;;;;;;;20.00;12.15;;;;;;;18.00;70.87;98966.16;5052898;28;20029;-50
2021/09/27 01:11:16;;;;;;;18.37;11.07;;;;;;;18.06;69.36;98963.34;5051419;28;20037;-50
2021/09/27 01:14:06;;;;;;;22.92;10.80;;;;;;;17.81;69.29;98958.41;5052749;28;20753;-50
2021/09/27 01:16:47;;;;;;;23.83;14.52;;;;;;;17.77;69.85;98959.94;5052673;28;20021;-50
2021/09/27 01:19:33;;;;;;;14.40;9.63;;;;;;;18.17;68.89;98962.44;5052623;28;20036;-50
2021/09/27 01:22:33;;;;;;;19.55;11.25;;;;;;;18.52;67.60;98961.34;5052635;28;20051;-50
2021/09/27 01:25:50;;;;;;;19.33;12.88;;;;;;;18.77;66.51;98963.53;5052541;28;20040;-50
2021/09/27 01:28:44;;;;;;;14.68;11.57;;;;;;;18.74;66.14;98960.56;5010645;28;20436;-50
2021/09/27 01:31:12;;;;;;;15.35;8.80;;;;;;;18.82;65.57;98951.38;4994019;28;20025;-50
2021/09/27 01:33:56;;;;;;;22.00;12.52;;;;;;;18.45;65.76;98962.56;5010510;28;20109;-50
2021/09/27 01:36:36;;;;;;;14.52;12.05;;;;;;;17.87;66.65;98967.31;5010496;28;20451;-50
2021/09/27 01:39:17;;;;;;;16.90;9.82;;;;;;;17.63;68.26;98962.09;4994058;28;20034;-50
2021/09/27 01:42:06;;;;;;;14.82;9.60;;;;;;;17.63;68.03;98967.41;5010358;28;20525;-50
2021/09/27 01:44:40;;;;;;;22.80;10.57;;;;;;;17.91;68.03;98963.91;5010412;28;20030;-50
2021/09/27 01:47:13;;;;;;;23.73;21.25;;;;;;;18.31;66.74;98962.94;5010326;28;20496;-50
2021/09/27 01:49:51;;;;;;;18.95;12.05;;;;;;;18.61;65.82;98955.59;5010307;28;20112;-50
2021/09/27 01:52:28;;;;;;;15.93;10.48;;;;;;;18.78;65.13;98959.03;5009888;28;20217;-50
2021/09/27 01:55:05;;;;;;;18.80;15.05;;;;;;;18.72;64.39;98944.84;4993735;28;20041;-50
2021/09/27 01:58:07;;;;;;;20.20;11.70;;;;;;;18.43;65.17;98954.03;4993736;28;20054;-50
2021/09/27 02:00:43;;;;;;;15.88;9.90;;;;;;;18.31;65.55;98951.47;5010200;28;20044;-50
2021/09/27 02:03:20;;;;;;;26.55;11.25;;;;;;;18.47;65.23;98949.84;5051326;28;20051;-50
2021/09/27 02:06:16;;;;;;;16.48;9.63;;;;;;;18.62;64.51;98942.06;5050560;28;20032;-50
2021/09/27 02:09:01;;;;;;;20.70;11.20;;;;;;;18.17;64.83;98943.06;5051883;28;20032;-50
2021/09/27 02:11:34;;;;;;;15.30;11.05;;;;;;;17.48;66.13;98943.25;5051873;28;20513;-50
2021/09/27 02:14:13;;;;;;;14.57;10.02;;;;;;;16.96;67.70;98941.50;5051914;28;20029;-51
2021/09/27 02:17:18;;;;;;;15.43;10.48;;;;;;;16.69;68.92;98936.69;5051819;28;20487;-50
2021/09/27 02:20:09;;;;;;;17.20;10.20;;;;;;;16.72;69.31;98938.88;5051726;28;20119;-51
2021/09/27 02:22:39;;;;;;;16.15;12.07;;;;;;;16.86;69.48;98943.94;5051453;28;20685;-50
2021/09/27 02:25:22;;;;;;;19.30;15.32;;;;;;;17.24;68.71;98938.03;5051668;28;20522;-50
2021/09/27 02:27:50;;;;;;;23.25;15.48;;;;;;;17.36;67.93;98938.81;5050466;28;20032;-50
2021/09/27 02:30:23;;;;;;;17.38;15.10;;;;;;;17.19;67.63;98935.31;5051501;28;20025;-50
2021/09/27 02:32:55;;;;;;;12.00;10.75;;;;;;;16.86;68.21;98936.81;5051639;28;20033;-50
2021/09/27 02:35:27;;;;;;;20.23;12.10;;;;;;;16.54;69.17;98939.00;5050305;28;20055;-50
2021/09/27 02:38:05;;;;;;;16.30;10.95;;;;;;;16.31;69.91;98947.81;5051611;28;20040;-50
2021/09/27 02:40:40;;;;;;;13.20;9.85;;;;;;;16.25;70.39;98946.88;5050281;28;20064;-50
2021/09/27 02:43:09;;;;;;;16.63;10.18;;;;;;;16.18;70.53;98949.66;5051570;28;20052;-50
2021/09/27 02:45:37;;;;;;;18.48;11.13;;;;;;;16.16;70.72;98949.06;5050105;28;20025;-50
2021/09/27 02:48:13;;;;;;;15.98;10.82;;;;;;;16.05;70.84;98943.78;5051438;28;20078;-50
2021/09/27 02:50:46;;;;;;;14.23;11.05;;;;;;;15.67;71.88;98939.66;5050081;28;20398;-50
2021/09/27 02:53:12;;;;;;;15.65;11.48;;;;;;;15.36;72.76;98934.41;5051385;28;20028;-50
2021/09/27 02:56:19;;;;;;;12.73;11.40;;;;;;;15.13;73.84;98936.94;5050105;28;20021;-50
2021/09/27 02:59:24;;;;;;;16.38;12.50;;;;;;;14.97;74.46;98919.91;5050020;28;20040;-50
2021/09/27 03:01:55;;;;;;;21.67;16.23;;;;;;;14.86;75.30;98925.94;5051381;28;20021;-50
2021/09/27 03:04:45;;;;;;;18.10;12.13;;;;;;;14.76;75.95;98923.81;5052623;28;20588;-50
2021/09/27 03:07:30;;;;;;;18.73;11.65;;;;;;;14.74;76.26;98918.72;5055164;28;20028;-50
2021/09/27 03:10:14;;;;;;;14.30;11.40;;;;;;;14.69;76.07;98928.34;5053692;28;20112;-50
2021/09/27 03:13:19;;;;;;;14.38;12.60;;;;;;;14.63;76.34;98916.03;5055122;28;20490;-50
2021/09/27 03:15:57;;;;;;;16.30;12.60;;;;;;;14.60;76.77;98917.28;5045833;28;20414;-50
2021/09/27 03:19:01;;;;;;;37.53;34.03;;;;;;;14.62;76.92;98922.34;5054924;28;20248;-50
2021/09/27 03:21:49;;;;;;;15.73;14.10;;;;;;;14.60;76.82;98917.28;5012895;28;20030;-50
2021/09/27 03:24:23;;;;;;;13.68;12.18;;;;;;;14.56;76.82;98919.53;5012640;28;20057;-50
2021/09/27 03:27:11;;;;;;;13.52;12.02;;;;;;;14.55;76.84;98917.91;5012955;28;20077;-50
2021/09/27 03:30:23;;;;;;;15.23;11.82;;;;;;;14.51;77.16;98913.31;5012875;28;20040;-50
2021/09/27 03:32:55;;;;;;;22.48;13.48;;;;;;;14.52;77.24;98917.53;4973669;28;20121;-51
2021/09/27 03:35:32;;;;;;;21.10;13.10;;;;;;;14.49;77.82;98907.44;4973709;28;20043;-50
2021/09/27 03:38:07;;;;;;;17.27;12.88;;;;;;;14.50;77.73;98907.19;4973650;28;20037;-50
2021/09/27 03:41:02;;;;;;;16.20;14.07;;;;;;;14.60;77.69;98906.72;4973496;28;20043;-50
2021/09/27 03:43:43;;;;;;;18.02;12.57;;;;;;;14.89;76.89;98905.16;4973590;28;20106;-51
2021/09/27 03:46:30;;;;;;;23.05;13.50;;;;;;;15.05;76.25;98906.38;4973413;28;20052;-50
2021/09/27 03:49:40;;;;;;;21.30;14.27;;;;;;;15.21;75.72;98904.91;4973422;28;20037;-50
2021/09/27 03:52:12;;;;;;;16.15;12.30;;;;;;;15.41;75.15;98909.91;4977348;28;20073;-50
2021/09/27 03:54:53;;;;;;;13.40;11.82;;;;;;;15.44;74.67;98903.38;4992824;28;20471;-50
2021/09/27 03:57:56;;;;;;;15.50;11.95;;;;;;;15.29;74.88;98898.50;4992782;28;20030;-51
2021/09/27 04:00:42;;;;;;;15.25;11.32;;;;;;;15.13;75.05;98898.13;4992301;28;20066;-50
2021/09/27 04:03:43;;;;;;;17.48;12.05;;;;;;;14.94;75.50;98894.69;4992740;28;20121;-51
2021/09/27 04:06:27;;;;;;;14.32;11.27;;;;;;;14.83;75.72;98894.66;5006158;28;20546;-50
2021/09/27 04:08:58;;;;;;;16.65;11.40;;;;;;;14.74;76.15;98887.03;5054056;28;20112;-50
2021/09/27 04:11:35;;;;;;;13.82;10.82;;;;;;;14.67;76.13;98888.13;5053980;28;20124;-50
2021/09/27 04:14:39;;;;;;;17.77;11.73;;;;;;;14.58;76.38;98891.06;5052609;28;20079;-50
2021/09/27 04:17:19;;;;;;;18.92;11.20;;;;;;;14.55;76.64;98893.34;5053860;28;20213;-51
2021/09/27 04:19:51;;;;;;;12.90;11.05;;;;;;;14.59;76.53;98886.63;5053831;28;20394;-51
2021/09/27 04:22:35;;;;;;;17.58;12.38;;;;;;;14.63;76.57;98892.25;5053734;28;20032;-51
2021/09/27 04:25:07;;;;;;;17.38;11.63;;;;;;;14.67;76.27;98890.78;5053775;28;20044;-51
2021/09/27 04:28:00;;;;;;;20.13;13.43;;;;;;;14.73;76.01;98887.28;5053732;28;20033;-51
2021/09/27 04:30:44;;;;;;;13.73;10.45;;;;;;;14.66;76.31;98883.88;5053574;28;20521;-51
2021/09/27 04:33:43;;;;;;;16.23;11.35;;;;;;;14.64;76.34;98886.75;5053575;28;20032;-51
2021/09/27 04:36:29;;;;;;;20.65;11.80;;;;;;;14.65;76.30;98882.25;5049472;28;20479;-51
2021/09/27 04:39:28;;;;;;;16.88;12.18;;;;;;;14.66;76.31;98886.53;5053483;28;20063;-51
2021/09/27 04:42:27;;;;;;;15.00;11.02;;;;;;;14.73;76.61;98882.78;5045260;28;20579;-51
2021/09/27 04:44:55;;;;;;;19.83;11.57;;;;;;;14.85;76.13;98882.00;5052058;28;20037;-51
2021/09/27 04:47:21;;;;;;;25.98;11.93;;;;;;;14.91;76.09;98884.59;5053249;28;20095;-51
2021/09/27 04:49:57;;;;;;;18.35;11.15;;;;;;;15.10;75.71;98874.78;5053159;28;20483;-51
2021/09/27 04:52:42;;;;;;;18.05;10.75;;;;;;;15.38;75.50;98873.34;5053193;28;20410;-51
2021/09/27 04:55:12;;;;;;;;;;;;;;;15.57;74.93;98876.72;5053575;28;20025;-51
2021/09/27 04:58:05;;;;;;;21.65;16.02;;;;;;;15.98;74.39;98867.91;5053090;28;20314;-51
2021/09/27 05:01:09;;;;;;;17.25;9.73;;;;;;;16.45;72.64;98872.34;5053074;28;20032;-50
2021/09/27 05:04:05;;;;;;;16.92;10.65;;;;;;;16.49;71.60;98872.69;5053191;28;20032;-51
2021/09/27 05:06:33;;;;;;;25.70;11.05;;;;;;;16.33;71.41;98871.56;5052927;28;20025;-50
2021/09/27 05:09:20;;;;;;;25.13;10.13;;;;;;;16.28;71.52;98874.09;5051522;28;20024;-50
2021/09/27 05:12:01;;;;;;;14.50;10.35;;;;;;;16.12;71.35;98871.13;5052839;28;20597;-50
2021/09/27 05:14:45;;;;;;;17.27;11.73;;;;;;;15.77;72.07;98871.97;5051522;28;20064;-50
2021/09/27 05:17:33;;;;;;;21.25;11.88;;;;;;;15.55;72.98;98873.50;5052653;28;20056;-51
2021/09/27 05:20:04;;;;;;;12.77;10.80;;;;;;;15.41;73.68;98872.88;5052689;28;20056;-50
2021/09/27 05:22:39;;;;;;;21.13;14.98;;;;;;;15.53;75.38;98872.91;5052688;28;20057;-51
2021/09/27 05:25:49;;;;;;;26.98;11.50;;;;;;;15.70;74.22;98870.44;5052604;28;20041;-51
2021/09/27 05:28:30;;;;;;;20.83;11.63;;;;;;;15.82;73.79;98878.41;5046836;28;20040;-51
2021/09/27 05:31:14;;;;;;;15.48;11.85;;;;;;;15.89;73.16;98869.28;5052376;28;20029;-51
2021/09/27 05:34:04;;;;;;;21.55;17.95;;;;;;;15.96;73.03;98880.59;5052475;28;20402;-50
2021/09/27 05:37:19;;;;;;;20.70;12.35;;;;;;;16.01;72.46;98874.59;5052366;28;20507;-50
2021/09/27 05:40:14;;;;;;;20.00;10.73;;;;;;;15.85;72.57;98878.72;5024012;28;20033;-51
2021/09/27 05:42:44;;;;;;;18.60;12.15;;;;;;;15.71;72.84;98887.91;5052308;28;20029;-51
2021/09/27 05:45:38;;;;;;;20.42;12.63;;;;;;;15.58;73.35;98887.06;5051172;28;20503;-51
2021/09/27 05:48:07;;;;;;;18.83;12.23;;;;;;;15.48;73.70;98881.53;5050857;28;20056;-51
2021/09/27 05:50:39;;;;;;;17.20;10.65;;;;;;;15.48;73.89;98884.19;5052014;28;20021;-51
2021/09/27 05:53:32;;;;;;;27.55;11.30;;;;;;;15.75;73.94;98897.84;5052045;28;20036;-51
2021/09/27 05:56:06;;;;;;;28.98;13.35;;;;;;;16.50;74.95;98895.47;5052019;28;20018;-51
2021/09/27 05:58:45;;;;;;;22.90;12.93;;;;;;;17.21;73.74;98896.09;5052063;28;20108;-51
2021/09/27 06:01:18;;;;;;;29.85;19.65;;;;;;;17.51;73.38;98892.34;5051975;28;20037;-51
2021/09/27 06:04:14;;;;;;;24.05;14.60;;;;;;;17.72;72.60;98898.78;5050647;28;20024;-51
2021/09/27 06:06:53;;;;;;;19.52;11.55;;;;;;;17.82;71.10;98900.81;5050656;28;20437;-51
2021/09/27 06:09:40;;;;;;;30.02;12.15;;;;;;;17.99;70.01;98904.28;5051860;28;20021;-51
2021/09/27 06:12:31;;;;;;;423.58;378.05;;;;;;;18.20;68.98;98905.38;5051418;28;20427;-50
2021/09/27 06:15:04;;;;;;;290.60;263.33;;;;;;;18.37;67.45;98905.31;5043544;28;20025;-51
2021/09/27 06:17:54;;;;;;;534.17;468.35;;;;;;;18.56;66.65;98900.53;5050501;28;20036;-51
2021/09/27 06:20:34;;;;;;;114.30;69.03;;;;;;;18.40;65.94;98901.38;5051784;28;20040;-51
2021/09/27 06:23:11;;;;;;;47.53;30.00;;;;;;;17.97;66.38;98914.34;5051720;28;20445;-51
2021/09/27 06:25:48;;;;;;;96.55;87.25;;;;;;;17.80;67.34;98916.16;5051759;28;20585;-51
2021/09/27 06:28:22;;;;;;;29.73;17.98;;;;;;;17.93;66.32;98914.03;5051721;28;20103;-51
2021/09/27 06:30:51;;;;;;;28.60;20.77;;;;;;;17.86;66.39;98908.06;5050253;28;20182;-51
2021/09/27 06:33:36;;;;;;;15.48;10.52;;;;;;;17.96;66.03;98910.88;5051641;28;20025;-51
2021/09/27 06:36:13;;;;;;;21.95;15.73;;;;;;;17.87;65.97;98909.69;5050319;28;20521;-50
2021/09/27 06:38:40;;;;;;;13.45;10.02;;;;;;;17.69;66.47;98915.22;5052273;28;20067;-51
2021/09/27 06:41:10;;;;;;;20.80;11.75;;;;;;;17.58;66.77;98900.94;5055616;28;20500;-51
2021/09/27 06:43:36;;;;;;;14.55;10.10;;;;;;;17.69;66.77;98913.34;5055630;28;20490;-50
2021/09/27 06:46:02;;;;;;;19.17;10.77;;;;;;;17.86;66.64;98908.06;5055564;28;20037;-50
2021/09/27 06:48:28;;;;;;;19.05;17.08;;;;;;;17.98;66.19;98907.97;5055585;28;20075;-51
2021/09/27 06:50:55;;;;;;;18.25;10.98;;;;;;;17.75;66.14;98907.06;5054030;28;20402;-51
2021/09/27 06:53:21;;;;;;;18.15;11.05;;;;;;;17.55;66.64;98917.38;5054130;28;20514;-51
2021/09/27 06:55:47;;;;;;;17.80;11.35;;;;;;;17.45;67.60;98925.16;5055370;28;20048;-50
2021/09/27 06:58:13;;;;;;;14.00;10.50;;;;;;;17.49;67.09;98911.16;5055411;28;20040;-51
2021/09/27 07:00:38;;;;;;;14.82;10.80;;;;;;;17.48;67.29;98914.84;5055307;28;20043;-51
2021/09/27 07:03:05;;;;;;;13.35;10.00;;;;;;;17.56;67.21;98918.97;5053988;28;20132;-50
2021/09/27 07:05:30;;;;;;;18.75;11.73;;;;;;;17.82;67.13;98919.38;5055306;28;20029;-51
2021/09/27 07:07:56;;;;;;;83.55;54.05;;;;;;;18.43;66.35;98927.47;5053851;28;20032;-50
2021/09/27 07:10:24;;;;;;;26.88;18.48;;;;;;;19.40;63.47;98930.44;5053719;28;20061;-51
2021/09/27 07:12:50;;;;;;;20.00;8.95;;;;;;;20.08;61.40;98918.25;5055098;28;20094;-51
2021/09/27 07:15:17;;;;;;;13.15;8.40;;;;;;;20.45;60.05;98922.72;5055037;28;20036;-49
2021/09/27 07:17:43;;;;;;;14.18;9.25;;;;;;;20.64;59.07;98924.97;5054980;28;20434;-49
2021/09/27 07:20:21;;;;;;;10.57;8.93;;;;;;;20.76;58.72;98933.53;5054930;28;20025;-49
2021/09/27 07:22:47;;;;;;;15.15;8.70;;;;;;;20.84;57.91;98933.03;5054661;28;20483;-48
2021/09/27 07:25:15;;;;;;;13.48;10.93;;;;;;;20.83;58.20;98936.00;5053585;28;20108;-49
2021/09/27 07:27:41;;;;;;;16.13;12.45;;;;;;;20.75;58.12;98939.94;5054824;28;20021;-49
2021/09/27 07:30:09;;;;;;;16.30;9.43;;;;;;;20.61;58.44;98949.50;5053416;28;20071;-48
2021/09/27 07:32:35;;;;;;;12.48;8.75;;;;;;;20.49;58.42;98957.66;5054735;28;20112;-48
2021/09/27 07:35:03;;;;;;;14.40;8.48;;;;;;;20.39;58.69;98950.41;5054656;28;20051;-49
2021/09/27 07:37:29;;;;;;;10.50;8.50;;;;;;;20.32;58.76;98941.81;5054604;28;20025;-49
2021/09/27 07:39:55;;;;;;;10.70;8.77;;;;;;;20.31;59.03;98945.56;5053259;28;20025;-49
2021/09/27 07:42:20;;;;;;;11.73;8.65;;;;;;;20.70;58.76;98955.91;5053205;28;20117;-48
2021/09/27 07:44:46;;;;;;;20.92;9.85;;;;;;;21.17;57.53;98944.38;5054469;28;20017;-49
2021/09/27 07:47:12;;;;;;;11.43;9.25;;;;;;;21.45;56.61;98948.44;5054372;28;20056;-49
2021/09/27 07:49:38;;;;;;;15.93;9.02;;;;;;;21.93;55.67;98938.31;5052207;28;20021;-49
2021/09/27 07:52:04;;;;;;;13.68;8.65;;;;;;;22.51;53.47;98931.78;5054306;28;20044;-48
2021/09/27 07:54:30;;;;;;;12.30;8.65;;;;;;;22.58;52.22;98937.66;5054534;28;20021;-48
2021/09/27 07:56:56;;;;;;;16.20;13.68;;;;;;;22.68;52.24;98936.84;5054262;28;20047;-48
2021/09/27 07:59:22;;;;;;;11.35;8.68;;;;;;;23.11;51.04;98926.47;5054200;28;20096;-48
2021/09/27 08:01:48;;;;;;;12.40;7.95;;;;;;;23.48;49.82;98906.41;5054391;28;20124;-49
2021/09/27 08:04:15;;;;;;;12.88;11.30;;;;;;;23.35;50.21;98913.19;5054114;28;20017;-49
2021/09/27 08:06:43;;;;;;;20.15;14.88;;;;;;;22.84;50.74;98914.28;5053958;28;20021;-48
2021/09/27 08:09:10;;;;;;;17.00;10.20;;;;;;;21.98;52.22;98908.09;5053953;28;20021;-48
2021/09/27 08:11:40;;;;;;;16.02;9.93;;;;;;;21.31;55.04;98910.75;5053981;28;20021;-48
2021/09/27 08:14:06;;;;;;;12.13;9.65;;;;;;;21.13;54.82;98897.91;5053937;28;20028;-48
2021/09/27 08:16:32;;;;;;;13.52;8.27;;;;;;;21.25;54.70;98906.47;5052584;28;20100;-48
2021/09/27 08:18:58;;;;;;;11.68;9.00;;;;;;;21.27;54.31;98915.03;5054104;28;20068;-48
2021/09/27 08:21:24;;;;;;;11.95;8.98;;;;;;;21.29;54.74;98918.22;5053761;28;20098;-48
2021/09/27 08:23:50;;;;;;;13.65;8.50;;;;;;;21.33;54.71;98926.50;5053526;28;20045;-49
2021/09/27 08:26:18;;;;;;;15.68;9.35;;;;;;;21.37;54.60;98924.09;5053664;28;20028;-48
2021/09/27 08:28:44;;;;;;;13.57;8.85;;;;;;;21.59;54.48;98932.72;5052337;28;20418;-49
2021/09/27 08:31:16;;;;;;;17.33;10.10;;;;;;;21.60;54.44;98934.28;5053804;28;20052;-48
2021/09/27 08:33:42;;;;;;;9.25;6.70;;;;;;;21.66;54.59;98927.09;5053596;28;20170;-48
2021/09/27 08:36:11;;;;;;;11.70;7.88;;;;;;;21.77;54.45;98925.22;5052152;28;20526;-49
2021/09/27 08:38:38;;;;;;;9.65;6.88;;;;;;;22.14;54.23;98927.59;5053493;28;20025;-49
2021/09/27 08:41:18;;;;;;;8.43;6.72;;;;;;;23.60;50.57;98911.41;5053398;28;20557;-49
2021/09/27 08:44:29;;;;;;;11.35;6.95;;;;;;;24.69;47.34;98926.19;5052130;28;20457;-49
2021/09/27 08:47:21;;;;;;;9.50;7.35;;;;;;;24.47;46.75;98924.81;5053232;28;20115;-49
2021/09/27 08:50:08;;;;;;;13.27;6.85;;;;;;;24.43;47.35;98922.97;5053146;28;20033;-49
2021/09/27 08:52:40;;;;;;;9.63;7.22;;;;;;;24.97;45.81;98920.97;5035341;28;20025;-49
2021/09/27 08:55:10;;;;;;;9.50;7.03;;;;;;;24.60;46.36;98923.34;5051907;28;20028;-49
2021/09/27 08:58:09;;;;;;;19.48;13.98;;;;;;;25.51;46.48;98933.94;5053172;28;20025;-49
2021/09/27 09:00:51;;;;;;;8.85;7.00;;;;;;;26.97;42.96;98939.13;5051753;28;20120;-49
2021/09/27 09:03:37;;;;;;;7.95;6.32;;;;;;;28.58;40.25;98924.94;5052331;28;20499;-48
2021/09/27 09:06:24;;;;;;;18.20;9.50;;;;;;;28.74;39.19;98928.00;5051987;28;20037;-50
2021/09/27 09:09:02;;;;;;;8.82;5.97;;;;;;;29.00;38.17;98925.34;5052571;28;20115;-49
2021/09/27 09:11:38;;;;;;;26.48;13.15;;;;;;;28.85;38.60;98926.56;5051541;28;20040;-49
2021/09/27 09:14:16;;;;;;;15.35;8.57;;;;;;;29.28;37.71;98923.16;5052839;28;20025;-49
2021/09/27 09:16:43;;;;;;;11.02;5.97;;;;;;;29.00;37.76;98930.75;5052773;28;20033;-49
2021/09/27 09:19:14;;;;;;;22.33;15.15;;;;;;;28.74;38.19;98930.72;5051416;28;20490;-49
2021/09/27 09:21:48;;;;;;;8.73;5.88;;;;;;;29.55;36.95;98924.72;5052717;28;20437;-49
2021/09/27 09:24:19;;;;;;;12.82;6.47;;;;;;;29.87;36.25;98923.41;5052346;28;20053;-49
2021/09/27 09:26:49;;;;;;;10.85;5.75;;;;;;;30.02;35.72;98926.69;5052563;28;20483;-49
2021/09/27 09:29:20;;;;;;;13.63;6.13;;;;;;;30.09;35.96;98921.59;5051444;28;20036;-50
2021/09/27 09:31:54;;;;;;;8.63;7.38;;;;;;;30.60;35.01;98918.97;5052474;28;20537;-49
2021/09/27 09:34:19;;;;;;;13.35;6.60;;;;;;;31.34;34.00;98922.13;5051183;28;20124;-50
2021/09/27 09:36:51;;;;;;;15.70;7.03;;;;;;;32.10;33.10;98926.34;5051001;28;20567;-50
2021/09/27 09:39:20;;;;;;;13.35;7.25;;;;;;;32.55;31.96;98932.84;5051016;28;20107;-50
2021/09/27 09:41:53;;;;;;;11.20;5.93;;;;;;;32.60;31.58;98938.06;5052264;28;20027;-50
2021/09/27 09:44:44;;;;;;;15.60;8.20;;;;;;;32.67;31.52;98934.75;5052345;28;20025;-50
2021/09/27 09:47:13;;;;;;;13.65;7.07;;;;;;;32.00;32.83;98941.16;5051208;28;20035;-50
2021/09/27 09:50:14;;;;;;;18.95;7.00;;;;;;;31.63;33.68;98927.47;5052066;28;20491;-49
2021/09/27 09:52:50;;;;;;;14.90;6.20;;;;;;;32.25;32.93;98931.09;5052154;28;20098;-49
2021/09/27 09:55:20;;;;;;;12.13;6.68;;;;;;;33.02;31.73;98927.66;5052008;28;20028;-49
2021/09/27 09:58:07;;;;;;;13.93;6.88;;;;;;;33.50;31.21;98918.88;5052043;28;20029;-50
2021/09/27 10:00:42;;;;;;;13.32;7.40;;;;;;;33.77;30.80;98925.47;5051988;28;20063;-50
2021/09/27 10:03:12;;;;;;;41.05;36.95;;;;;;;33.59;30.64;98924.97;5052020;28;20537;-50
2021/09/27 10:05:48;;;;;;;48.95;12.13;;;;;;;33.77;30.21;98928.19;5050653;28;20029;-49
2021/09/27 10:08:24;;;;;;;10.48;6.47;;;;;;;34.45;29.51;98918.19;5050596;28;20391;-50
2021/09/27 10:11:13;;;;;;;8.93;6.60;;;;;;;34.38;29.24;98927.78;5051779;28;20029;-50
2021/09/27 10:13:54;;;;;;;13.77;6.25;;;;;;;34.53;29.30;98928.91;5050186;28;20033;-50
2021/09/27 10:16:46;;;;;;;8.23;6.00;;;;;;;35.37;28.43;98932.25;5051801;28;20029;-49
2021/09/27 10:19:37;;;;;;;9.73;5.55;;;;;;;35.82;27.83;98924.53;5051830;28;20031;-49
2021/09/27 10:22:11;;;;;;;11.73;6.18;;;;;;;36.12;27.29;98919.97;5051753;28;20095;-50
2021/09/27 10:24:47;;;;;;;7.10;6.13;;;;;;;35.97;26.88;98929.88;5051461;28;20073;-50
2021/09/27 10:27:27;;;;;;;16.27;6.85;;;;;;;35.59;27.75;98926.06;5051729;28;20508;-50
2021/09/27 10:29:54;;;;;;;7.75;5.95;;;;;;;35.93;27.24;98925.50;5050351;28;20037;-50
2021/09/27 10:32:40;;;;;;;6.95;5.32;;;;;;;36.39;26.77;98923.53;5051624;28;20017;-50
2021/09/27 10:35:29;;;;;;;14.40;5.70;;;;;;;36.14;26.81;98925.88;5051645;28;20033;-50
2021/09/27 10:38:18;;;;;;;14.48;10.07;;;;;;;35.57;27.37;98925.63;5043969;28;20120;-49
2021/09/27 10:40:47;;;;;;;12.05;6.45;;;;;;;35.06;28.05;98923.06;5050239;28;20028;-50
2021/09/27 10:43:18;;;;;;;17.55;7.63;;;;;;;34.77;28.71;98917.00;5051550;28;20514;-49
2021/09/27 10:45:49;;;;;;;5.85;4.97;;;;;;;34.88;28.11;98916.44;5050196;28;20032;-49
2021/09/27 10:48:17;;;;;;;6.90;5.20;;;;;;;34.91;28.64;98921.97;5051493;28;20025;-49
2021/09/27 10:50:46;;;;;;;9.32;5.75;;;;;;;35.13;28.44;98904.09;5051337;28;20031;-50
2021/09/27 10:53:49;;;;;;;14.60;6.97;;;;;;;35.51;28.14;98915.38;5050142;28;20028;-50
2021/09/27 10:56:29;;;;;;;13.23;6.05;;;;;;;35.71;27.49;98918.88;5050450;28;20107;-50
2021/09/27 10:59:04;;;;;;;6.32;5.32;;;;;;;35.60;27.54;98913.22;5050126;28;20403;-50
2021/09/27 11:01:44;;;;;;;9.57;5.70;;;;;;;35.27;27.90;98911.81;5050086;28;20055;-50
2021/09/27 11:04:19;;;;;;;14.80;6.65;;;;;;;34.85;28.66;98911.69;5051426;28;20550;-50
2021/09/27 11:06:56;;;;;;;8.07;5.13;;;;;;;34.35;29.07;98914.88;5050133;28;20033;-50
2021/09/27 11:09:25;;;;;;;9.57;7.22;;;;;;;33.60;29.95;98911.00;5049926;28;20067;-50
2021/09/27 11:12:03;;;;;;;6.47;5.88;;;;;;;33.11;31.11;98911.22;5049863;28;20021;-50
2021/09/27 11:14:51;;;;;;;7.50;5.07;;;;;;;32.43;32.02;98917.31;5051183;28;20021;-49
2021/09/27 11:17:24;;;;;;;6.97;5.45;;;;;;;31.78;33.20;98917.13;5051158;28;20025;-50
2021/09/27 11:20:15;;;;;;;14.63;8.25;;;;;;;31.43;34.43;98907.38;5051191;28;20131;-49
2021/09/27 11:23:04;;;;;;;8.57;6.97;;;;;;;31.32;34.43;98910.84;5043879;28;20068;-49
2021/09/27 11:25:37;;;;;;;13.18;7.22;;;;;;;31.07;34.57;98905.31;5052643;28;20025;-49
2021/09/27 11:28:05;;;;;;;7.93;5.90;;;;;;;31.00;35.16;98905.03;5055133;28;20056;-49
2021/09/27 11:30:51;;;;;;;10.90;7.72;;;;;;;30.85;35.40;98909.88;5053392;28;20044;-50
2021/09/27 11:33:29;;;;;;;8.80;5.75;;;;;;;30.86;35.28;98913.38;5054817;28;20029;-49
2021/09/27 11:35:59;;;;;;;7.70;5.80;;;;;;;31.14;34.90;98913.69;5053326;28;20029;-49
2021/09/27 11:38:40;;;;;;;8.20;6.72;;;;;;;31.49;34.23;98918.03;5054856;28;20067;-49
2021/09/27 11:41:11;;;;;;;16.92;8.20;;;;;;;31.43;34.40;98918.22;5054598;28;20021;-49
2021/09/27 11:43:48;;;;;;;16.23;6.97;;;;;;;31.54;34.68;98907.78;5053210;28;20437;-50
2021/09/27 11:46:25;;;;;;;9.23;6.70;;;;;;;31.87;34.21;98909.66;5053210;28;20029;-49
2021/09/27 11:49:20;;;;;;;9.82;6.65;;;;;;;32.14;34.03;98910.19;5054420;28;20033;-50
2021/09/27 11:52:02;;;;;;;15.20;7.00;;;;;;;32.07;33.79;98897.16;5054304;28;20036;-50
2021/09/27 11:54:37;;;;;;;8.38;5.78;;;;;;;32.17;33.87;98891.28;5054400;28;20028;-50
2021/09/27 11:57:21;;;;;;;15.45;7.63;;;;;;;32.77;33.07;98896.22;5054443;28;20055;-50
2021/09/27 11:59:54;;;;;;;7.20;5.45;;;;;;;33.49;32.15;98899.06;5053040;28;20049;-50
2021/09/27 12:02:29;;;;;;;8.30;5.78;;;;;;;33.67;31.62;98899.56;5054296;28;20071;-50
2021/09/27 12:05:22;;;;;;;8.18;5.88;;;;;;;33.57;31.67;98909.00;5052855;28;20115;-49
2021/09/27 12:07:56;;;;;;;17.02;7.25;;;;;;;33.29;32.28;98900.84;5054196;28;20024;-49
2021/09/27 12:10:44;;;;;;;15.05;6.40;;;;;;;33.00;32.44;98904.66;5054026;28;20534;-49